Time;durP1;ratioP1;P1;durP2;ratioP2;P2;SDS_P1;SDS_P2;PMS_P1;PMS_P2;Temp;Humidity;BMP_temperature;BMP_pressure;BME280_temperature;BME280_humidity;BME280_pressure;Samples;Min_cycle;Max_cycle;Signal;HPM_P1;HPM_P2
2022/03/16 00:02:04;;;;;;;75.93;22.98;;;;;;;16.88;66.57;100183.84;5029022;28;20555;-68
2022/03/16 00:04:31;;;;;;;74.30;23.70;;;;;;;16.83;66.66;100183.19;5030853;28;20049;-68
2022/03/16 00:06:59;;;;;;;95.28;25.20;;;;;;;16.89;67.35;100201.59;5020981;28;20057;-67
2022/03/16 00:09:26;;;;;;;106.82;26.65;;;;;;;16.67;67.33;100174.34;5032835;28;20128;-68
2022/03/16 00:11:53;;;;;;;89.03;26.33;;;;;;;16.55;67.67;100170.22;5017160;28;20125;-68
2022/03/16 00:14:20;;;;;;;90.05;25.65;;;;;;;16.45;67.76;100162.06;5028537;28;20080;-67
2022/03/16 00:16:47;;;;;;;95.15;25.40;;;;;;;16.58;67.71;100185.63;5031453;28;20461;-68
2022/03/16 00:19:14;;;;;;;78.03;22.60;;;;;;;16.31;67.88;100156.59;5027363;28;20081;-67
2022/03/16 00:21:41;;;;;;;87.25;25.92;;;;;;;16.42;68.42;100176.00;5034756;28;20119;-68
2022/03/16 00:24:08;;;;;;;90.30;27.90;;;;;;;16.38;68.59;100156.09;5026782;28;20125;-67
2022/03/16 00:26:43;;;;;;;100.15;26.65;;;;;;;16.51;68.23;100179.63;5015658;28;20128;-67
2022/03/16 00:29:13;;;;;;;98.25;26.50;;;;;;;16.53;68.52;100185.78;5027956;28;20050;-67
2022/03/16 00:31:52;;;;;;;93.68;25.73;;;;;;;16.35;68.46;100160.41;5021616;28;20404;-67
2022/03/16 00:34:19;;;;;;;93.05;30.98;;;;;;;16.38;68.24;100164.56;5020542;28;20195;-68
2022/03/16 00:36:47;;;;;;;104.38;27.40;;;;;;;16.43;68.05;100170.00;5031750;28;20080;-68
2022/03/16 00:39:14;;;;;;;103.97;28.60;;;;;;;16.62;68.14;100181.00;5014822;28;20088;-67
2022/03/16 00:41:40;;;;;;;127.70;31.48;;;;;;;16.69;67.45;100180.50;5023750;28;20085;-67
2022/03/16 00:44:08;;;;;;;96.57;28.05;;;;;;;16.78;66.92;100179.34;5030812;28;20132;-67
2022/03/16 00:46:36;;;;;;;86.97;24.50;;;;;;;16.77;67.06;100166.44;5034006;28;20128;-68
2022/03/16 00:49:04;;;;;;;66.45;26.70;;;;;;;16.91;66.44;100190.81;5028540;28;20103;-68
2022/03/16 00:51:31;;;;;;;57.78;28.55;;;;;;;16.77;66.82;100191.81;5033958;28;20124;-68
2022/03/16 00:53:58;;;;;;;77.53;29.23;;;;;;;16.83;66.94;100209.41;5035099;28;20134;-67
2022/03/16 00:56:25;;;;;;;88.10;29.27;;;;;;;16.46;66.58;100155.25;5033745;28;20084;-67
2022/03/16 00:58:52;;;;;;;65.72;27.23;;;;;;;16.65;66.86;100180.34;5031546;28;20444;-68
2022/03/16 01:01:19;;;;;;;72.53;28.10;;;;;;;16.82;66.73;100202.13;5026912;28;20473;-67
2022/03/16 01:03:46;;;;;;;78.75;29.35;;;;;;;16.75;66.68;100173.56;5022037;28;20104;-67
2022/03/16 01:06:15;;;;;;;78.72;32.22;;;;;;;16.89;66.35;100195.94;5029434;28;20141;-68
2022/03/16 01:08:45;;;;;;;93.15;27.75;;;;;;;16.75;66.70;100168.78;5020672;28;20054;-67
2022/03/16 01:11:13;;;;;;;68.50;26.90;;;;;;;16.69;66.44;100164.41;5024975;28;20045;-68
2022/03/16 01:13:41;;;;;;;67.43;24.08;;;;;;;16.80;66.84;100177.03;5022968;28;20462;-68
2022/03/16 01:16:08;;;;;;;75.18;25.25;;;;;;;16.76;66.95;100184.50;5018865;28;20081;-69
2022/03/16 01:18:36;;;;;;;72.20;25.73;;;;;;;16.83;66.52;100181.19;5015676;28;20054;-69
2022/03/16 01:21:07;;;;;;;65.53;25.15;;;;;;;16.85;66.86;100183.69;5032170;28;20081;-69
2022/03/16 01:23:36;;;;;;;68.13;23.90;;;;;;;16.84;66.69;100184.84;5027622;28;20132;-69
2022/03/16 01:26:16;;;;;;;52.53;23.55;;;;;;;16.78;66.57;100187.81;5024839;28;20132;-69
2022/03/16 01:28:43;;;;;;;93.20;25.27;;;;;;;16.59;66.88;100182.47;5032492;28;20480;-68
2022/03/16 01:31:09;;;;;;;80.38;25.45;;;;;;;16.34;67.00;100139.03;5022067;28;20303;-68
2022/03/16 01:33:36;;;;;;;81.20;25.30;;;;;;;16.73;66.74;100187.97;5029114;28;20156;-69
2022/03/16 01:36:03;;;;;;;65.07;25.20;;;;;;;16.65;66.85;100177.53;5029970;28;20128;-69
2022/03/16 01:38:30;;;;;;;57.92;23.70;;;;;;;16.69;66.69;100186.16;5031505;28;20129;-68
2022/03/16 01:40:57;;;;;;;81.38;25.80;;;;;;;16.61;66.52;100176.50;5025487;28;20137;-67
2022/03/16 01:43:24;;;;;;;69.95;24.38;;;;;;;16.61;66.63;100172.84;5050740;28;20132;-67
2022/03/16 01:45:52;;;;;;;85.57;28.30;;;;;;;16.68;66.56;100170.38;5031523;28;20083;-68
2022/03/16 01:48:19;;;;;;;69.40;25.30;;;;;;;16.59;67.00;100162.75;5026795;28;20049;-68
2022/03/16 01:50:50;;;;;;;74.47;24.83;;;;;;;16.68;66.81;100176.00;5018540;28;20485;-67
2022/03/16 01:53:18;;;;;;;86.53;27.50;;;;;;;16.67;66.90;100168.72;5030264;28;20128;-68
2022/03/16 01:55:44;;;;;;;91.05;26.10;;;;;;;16.59;67.02;100164.75;5030414;28;20562;-67
2022/03/16 01:58:12;;;;;;;89.93;28.33;;;;;;;16.62;67.13;100174.53;5025720;28;20172;-68
2022/03/16 02:00:40;;;;;;;96.28;26.55;;;;;;;16.59;66.84;100162.75;5028441;28;20125;-68
2022/03/16 02:03:07;;;;;;;79.40;28.92;;;;;;;16.64;67.22;100173.03;5018092;28;20141;-68
2022/03/16 02:05:35;;;;;;;70.13;28.33;;;;;;;16.65;66.78;100182.31;5024152;28;20156;-68
2022/03/16 02:08:04;;;;;;;77.03;27.20;;;;;;;16.45;67.03;100155.63;5032094;28;20164;-69
2022/03/16 02:10:32;;;;;;;86.07;28.15;;;;;;;16.51;67.15;100174.00;5026515;28;20133;-68
2022/03/16 02:12:59;;;;;;;66.07;25.50;;;;;;;16.40;66.92;100162.22;5029342;28;20660;-69
2022/03/16 02:15:26;;;;;;;92.22;27.70;;;;;;;16.46;67.07;100180.63;5030567;28;20140;-69
2022/03/16 02:17:57;;;;;;;68.70;25.17;;;;;;;16.32;67.43;100166.69;5029369;28;20449;-68
2022/03/16 02:20:25;;;;;;;76.75;25.05;;;;;;;16.37;67.85;100178.97;5033325;28;20042;-68
2022/03/16 02:22:59;;;;;;;86.97;31.10;;;;;;;16.00;67.74;100116.38;5027362;28;20128;-68
2022/03/16 02:25:28;;;;;;;94.00;28.80;;;;;;;16.43;67.69;100177.66;5028732;28;20077;-67
2022/03/16 02:27:56;;;;;;;94.10;27.02;;;;;;;16.49;67.46;100184.78;5022229;28;20499;-67
2022/03/16 02:30:25;;;;;;;75.50;26.80;;;;;;;16.42;67.63;100171.19;5028639;28;20161;-67
2022/03/16 02:32:53;;;;;;;87.03;30.03;;;;;;;16.50;67.71;100169.53;5028821;28;20077;-66
2022/03/16 02:35:21;;;;;;;74.43;25.65;;;;;;;16.51;67.30;100174.84;5024771;28;20564;-67
2022/03/16 02:37:48;;;;;;;115.55;30.73;;;;;;;16.38;67.39;100146.81;5030053;28;20496;-67
2022/03/16 02:40:20;;;;;;;92.40;27.85;;;;;;;16.41;67.59;100148.94;5026558;28;20058;-68
2022/03/16 02:42:48;;;;;;;79.43;26.50;;;;;;;16.48;67.25;100169.88;5029788;28;20041;-69
2022/03/16 02:45:15;;;;;;;81.47;29.23;;;;;;;16.38;67.38;100153.28;5030422;28;20051;-69
2022/03/16 02:47:42;;;;;;;84.90;27.23;;;;;;;16.42;67.58;100159.09;5028679;28;20079;-69
2022/03/16 02:50:18;;;;;;;75.20;28.08;;;;;;;16.44;67.29;100168.84;5032554;28;20097;-68
2022/03/16 02:52:45;;;;;;;74.28;28.95;;;;;;;16.48;67.59;100175.50;5026735;28;20607;-69
2022/03/16 02:55:32;;;;;;;83.13;28.13;;;;;;;16.40;67.08;100164.22;5025578;28;20055;-68
2022/03/16 02:58:00;;;;;;;69.88;25.63;;;;;;;16.47;67.18;100178.63;5028322;28;20088;-69
2022/03/16 03:00:27;;;;;;;80.28;29.67;;;;;;;16.38;67.27;100166.53;5020626;28;20564;-69
2022/03/16 03:02:54;;;;;;;90.65;27.50;;;;;;;16.45;67.55;100180.97;5027854;28;20045;-68
2022/03/16 03:05:22;;;;;;;86.78;26.27;;;;;;;16.42;67.14;100174.00;5027926;28;20053;-69
2022/03/16 03:07:49;;;;;;;82.35;27.65;;;;;;;16.33;67.60;100171.16;5027573;28;20080;-68
2022/03/16 03:10:16;;;;;;;70.57;28.90;;;;;;;16.19;67.54;100164.00;5029322;28;20136;-69
2022/03/16 03:12:43;;;;;;;83.90;29.92;;;;;;;16.29;67.55;100184.25;5023878;28;20144;-69
2022/03/16 03:15:13;;;;;;;92.25;28.35;;;;;;;16.22;67.98;100175.44;5021102;28;20148;-68
2022/03/16 03:17:41;;;;;;;77.68;27.88;;;;;;;16.00;67.57;100131.34;5022804;28;20041;-69
2022/03/16 03:20:09;;;;;;;73.75;28.17;;;;;;;16.33;67.98;100178.78;5036326;28;20056;-68
2022/03/16 03:22:36;;;;;;;79.22;29.40;;;;;;;16.33;67.62;100182.44;5026740;28;20089;-69
2022/03/16 03:25:04;;;;;;;74.45;27.77;;;;;;;16.28;67.75;100182.59;5020498;28;20054;-69
2022/03/16 03:27:32;;;;;;;88.70;26.23;;;;;;;16.19;67.53;100178.91;5029696;28;20132;-69
2022/03/16 03:29:59;;;;;;;67.10;27.95;;;;;;;16.28;67.71;100193.03;5026871;28;20137;-69
2022/03/16 03:32:26;;;;;;;80.97;26.77;;;;;;;16.21;67.59;100170.97;5028623;28;20081;-69
2022/03/16 03:34:55;;;;;;;72.97;28.88;;;;;;;16.25;67.77;100180.44;5029921;28;20124;-69
2022/03/16 03:37:25;;;;;;;86.65;27.88;;;;;;;16.07;67.79;100147.75;5028351;28;20576;-69
2022/03/16 03:39:52;;;;;;;76.20;26.40;;;;;;;16.10;67.77;100167.66;5024016;28;20045;-69
2022/03/16 03:42:19;;;;;;;68.10;26.85;;;;;;;16.01;68.37;100151.88;5029433;28;20124;-69
2022/03/16 03:44:47;;;;;;;70.90;26.92;;;;;;;15.92;68.96;100173.53;5031139;28;20136;-69
2022/03/16 03:47:14;;;;;;;70.18;27.67;;;;;;;15.77;69.25;100167.19;5030418;28;20085;-68
2022/03/16 03:49:42;;;;;;;64.45;27.05;;;;;;;15.56;69.60;100146.38;5027227;28;20139;-69
2022/03/16 03:52:10;;;;;;;81.63;27.58;;;;;;;15.37;70.09;100132.53;5020100;28;20232;-69
2022/03/16 03:54:38;;;;;;;85.28;24.58;;;;;;;15.37;70.35;100138.16;5028101;28;20129;-68
2022/03/16 03:57:04;;;;;;;78.80;24.92;;;;;;;15.44;71.10;100161.03;5018013;28;20093;-67
2022/03/16 03:59:32;;;;;;;75.33;25.43;;;;;;;15.32;71.40;100144.75;5022569;28;20128;-68
2022/03/16 04:01:59;;;;;;;93.10;25.87;;;;;;;15.48;71.12;100172.47;5034439;28;20080;-68
2022/03/16 04:04:26;;;;;;;93.17;29.73;;;;;;;15.20;70.84;100116.38;5029283;28;20049;-69
2022/03/16 04:06:54;;;;;;;107.60;29.27;;;;;;;15.67;70.48;100167.47;5024374;28;20058;-68
2022/03/16 04:09:21;;;;;;;75.53;26.05;;;;;;;15.71;70.06;100160.03;5020301;28;20045;-68
2022/03/16 04:11:47;;;;;;;72.07;26.60;;;;;;;15.68;69.73;100149.41;5014818;28;20088;-68
2022/03/16 04:14:16;;;;;;;79.57;28.75;;;;;;;15.78;69.78;100179.28;5022143;28;20096;-68
2022/03/16 04:16:43;;;;;;;82.25;27.05;;;;;;;15.88;69.64;100190.25;5029687;28;20080;-69
2022/03/16 04:19:10;;;;;;;81.78;27.52;;;;;;;15.90;69.69;100187.09;5026528;28;20505;-68
2022/03/16 04:21:37;;;;;;;78.72;25.00;;;;;;;15.99;69.22;100185.16;5026809;28;20476;-68
2022/03/16 04:24:05;;;;;;;76.22;26.20;;;;;;;15.97;69.18;100193.94;5030443;28;20087;-68
2022/03/16 04:26:32;;;;;;;68.47;23.88;;;;;;;15.91;69.43;100194.41;5031967;28;20100;-67
2022/03/16 04:28:59;;;;;;;68.57;21.02;;;;;;;15.75;69.37;100174.28;5023127;28;20128;-68
2022/03/16 04:31:25;;;;;;;87.57;22.90;;;;;;;15.70;69.20;100172.47;5028942;28;20136;-68
2022/03/16 04:33:52;;;;;;;62.67;20.02;;;;;;;15.81;69.40;100199.16;5027738;28;20049;-69
2022/03/16 04:36:19;;;;;;;61.38;21.35;;;;;;;15.74;69.28;100198.81;5032654;28;20053;-68
2022/03/16 04:38:46;;;;;;;55.40;21.50;;;;;;;15.67;69.26;100203.25;5026513;28;20478;-68
2022/03/16 04:41:13;;;;;;;51.78;17.90;;;;;;;15.70;69.49;100222.31;5017460;28;20049;-66
2022/03/16 04:43:40;;;;;;;63.90;19.42;;;;;;;15.57;69.43;100210.75;5023819;28;20088;-67
2022/03/16 04:46:06;;;;;;;50.55;19.35;;;;;;;15.58;69.68;100222.84;5022496;28;20084;-67
2022/03/16 04:48:33;;;;;;;53.60;19.38;;;;;;;15.56;69.81;100228.81;5033661;28;20419;-67
2022/03/16 04:51:01;;;;;;;52.95;18.75;;;;;;;15.61;69.43;100225.84;5031303;28;20041;-68
2022/03/16 04:53:27;;;;;;;59.05;19.10;;;;;;;15.50;69.20;100203.94;5028522;28;20067;-68
2022/03/16 04:55:54;;;;;;;84.50;21.13;;;;;;;15.70;69.34;100227.94;5029516;28;20144;-67
2022/03/16 04:58:21;;;;;;;54.38;19.42;;;;;;;15.61;69.27;100220.22;5018829;28;20085;-67
2022/03/16 05:00:48;;;;;;;45.90;20.58;;;;;;;15.59;69.37;100199.19;5030577;28;20128;-66
2022/03/16 05:03:15;;;;;;;61.97;19.60;;;;;;;15.51;69.22;100200.78;5037759;28;20052;-66
2022/03/16 05:05:42;;;;;;;57.90;19.63;;;;;;;15.67;69.31;100222.94;5029180;28;20049;-66
2022/03/16 05:08:09;;;;;;;55.22;20.73;;;;;;;15.65;69.50;100226.03;5024666;28;20042;-66
2022/03/16 05:10:36;;;;;;;49.70;19.88;;;;;;;15.19;69.81;100161.72;5032905;28;20089;-67
2022/03/16 05:13:03;;;;;;;78.68;22.60;;;;;;;15.48;69.47;100212.69;5028566;28;20076;-67
2022/03/16 05:15:30;;;;;;;57.97;18.20;;;;;;;15.45;70.16;100212.50;5027693;28;20093;-66
2022/03/16 05:17:56;;;;;;;43.28;16.92;;;;;;;15.35;69.96;100203.19;5033203;28;20393;-66
2022/03/16 05:20:23;;;;;;;53.22;20.65;;;;;;;15.34;69.85;100192.25;5023576;28;20057;-67
2022/03/16 05:22:52;;;;;;;60.67;17.33;;;;;;;15.30;69.66;100192.06;5024178;28;20156;-67
2022/03/16 05:25:25;;;;;;;36.88;18.42;;;;;;;15.33;69.69;100196.22;5032053;28;20111;-65
2022/03/16 05:27:54;;;;;;;35.47;14.37;;;;;;;15.41;69.98;100229.19;5034635;28;20512;-68
2022/03/16 05:30:23;;;;;;;45.03;17.17;;;;;;;15.19;69.98;100199.09;5034465;28;20423;-67
2022/03/16 05:32:51;;;;;;;26.55;13.80;;;;;;;15.25;69.89;100227.94;5027574;28;20041;-67
2022/03/16 05:35:19;;;;;;;26.63;12.97;;;;;;;15.19;69.94;100230.06;5024371;28;20053;-67
2022/03/16 05:37:46;;;;;;;44.57;15.70;;;;;;;15.06;70.28;100219.69;5025153;28;20133;-66
2022/03/16 05:40:13;;;;;;;26.63;13.48;;;;;;;15.06;70.18;100236.56;5030394;28;20063;-67
2022/03/16 05:42:40;;;;;;;35.40;13.63;;;;;;;15.13;70.15;100242.56;5033121;28;20132;-67
2022/03/16 05:45:07;;;;;;;25.60;11.90;;;;;;;14.75;70.29;100197.94;5021531;28;20144;-67
2022/03/16 05:47:34;;;;;;;33.40;13.82;;;;;;;14.93;69.90;100238.25;5031686;28;20111;-65
2022/03/16 05:50:01;;;;;;;31.60;12.17;;;;;;;14.80;70.15;100220.31;5027241;28;20053;-66
2022/03/16 05:52:34;;;;;;;28.03;12.03;;;;;;;14.77;69.89;100226.56;5030514;28;20046;-66
2022/03/16 05:55:02;;;;;;;28.00;11.97;;;;;;;14.95;70.16;100266.09;5019538;28;20049;-66
2022/03/16 05:57:29;;;;;;;29.13;12.73;;;;;;;14.84;69.98;100252.25;5030133;28;20081;-67
2022/03/16 05:59:56;;;;;;;25.70;11.13;;;;;;;14.35;69.82;100199.66;5029656;28;20132;-66
2022/03/16 06:02:22;;;;;;;25.93;11.33;;;;;;;14.92;70.07;100271.19;5029671;28;20402;-67
2022/03/16 06:04:49;;;;;;;33.70;12.97;;;;;;;14.93;69.81;100270.03;5032315;28;20052;-67
2022/03/16 06:07:16;;;;;;;29.80;12.60;;;;;;;14.82;69.81;100248.09;5029232;28;20141;-67
2022/03/16 06:09:44;;;;;;;22.67;13.00;;;;;;;15.00;69.93;100282.81;5031798;28;20136;-67
2022/03/16 06:12:11;;;;;;;41.55;14.00;;;;;;;14.99;69.96;100281.16;5031359;28;20155;-67
2022/03/16 06:14:39;;;;;;;33.97;12.60;;;;;;;14.96;69.68;100274.19;5023745;28;20095;-67
2022/03/16 06:17:09;;;;;;;31.33;12.50;;;;;;;14.92;69.81;100275.97;5007041;28;20054;-66
2022/03/16 06:19:36;;;;;;;26.55;11.70;;;;;;;14.79;69.60;100260.78;5001999;28;20077;-65
2022/03/16 06:22:03;;;;;;;24.10;12.43;;;;;;;15.02;69.62;100286.16;5024786;28;20133;-66
2022/03/16 06:24:30;;;;;;;30.57;12.27;;;;;;;14.95;69.52;100286.59;5030232;28;20128;-67
2022/03/16 06:26:58;;;;;;;37.43;14.30;;;;;;;14.95;69.90;100299.81;5030490;28;20905;-66
2022/03/16 06:29:25;;;;;;;32.87;14.17;;;;;;;14.58;69.55;100242.72;5017172;28;20545;-67
2022/03/16 06:31:52;;;;;;;34.17;13.20;;;;;;;14.88;69.67;100286.19;5028741;28;20516;-66
2022/03/16 06:34:19;;;;;;;34.07;11.90;;;;;;;14.85;69.41;100282.03;5026745;28;20045;-67
2022/03/16 06:36:46;;;;;;;25.63;12.57;;;;;;;14.94;69.72;100293.38;5026993;28;20189;-66
2022/03/16 06:39:13;;;;;;;23.35;12.15;;;;;;;15.00;69.41;100308.13;5028331;28;20520;-66
2022/03/16 06:41:40;;;;;;;27.75;13.07;;;;;;;15.10;69.47;100327.56;5031294;28;20081;-66
2022/03/16 06:44:07;;;;;;;28.40;12.53;;;;;;;15.15;69.16;100330.28;5028987;28;20461;-66
2022/03/16 06:46:34;;;;;;;34.67;12.53;;;;;;;15.15;69.04;100335.91;5028518;28;20616;-67
2022/03/16 06:49:00;;;;;;;29.90;13.23;;;;;;;15.12;69.07;100336.53;5032235;28;20460;-66
2022/03/16 06:51:27;;;;;;;31.63;14.40;;;;;;;15.03;69.12;100341.25;5029315;28;20081;-68
2022/03/16 06:53:54;;;;;;;27.10;12.50;;;;;;;14.92;68.97;100316.16;5029434;28;20120;-67
2022/03/16 06:56:21;;;;;;;23.50;13.10;;;;;;;14.88;69.01;100315.13;5027933;28;20456;-68
2022/03/16 06:58:49;;;;;;;30.47;12.97;;;;;;;15.12;69.08;100350.59;5025368;28;20148;-67
2022/03/16 07:01:15;;;;;;;32.67;14.45;;;;;;;15.04;69.23;100340.09;5018698;28;20080;-66
2022/03/16 07:03:43;;;;;;;27.03;12.77;;;;;;;14.92;69.18;100318.97;5021769;28;20132;-67
2022/03/16 07:06:10;;;;;;;33.90;14.13;;;;;;;14.88;69.39;100317.13;5024853;28;20481;-66
2022/03/16 07:08:37;;;;;;;35.13;13.15;;;;;;;15.02;69.43;100339.59;5029790;28;20133;-66
2022/03/16 07:11:07;;;;;;;43.60;16.25;;;;;;;14.89;69.52;100321.59;5024942;28;20132;-66
2022/03/16 07:13:34;;;;;;;35.10;13.65;;;;;;;14.94;69.70;100327.13;5025045;28;20050;-66
2022/03/16 07:16:01;;;;;;;31.47;13.97;;;;;;;14.79;69.77;100311.41;5024962;28;20532;-68
2022/03/16 07:18:28;;;;;;;32.20;13.30;;;;;;;14.88;69.84;100328.38;5025340;28;20049;-68
2022/03/16 07:20:55;;;;;;;41.87;15.23;;;;;;;14.75;69.57;100318.78;5026982;28;20060;-68
2022/03/16 07:23:22;;;;;;;34.20;13.17;;;;;;;14.73;70.02;100312.66;5024070;28;20104;-68
2022/03/16 07:25:50;;;;;;;29.53;14.47;;;;;;;14.87;69.88;100330.34;5024798;28;20576;-68
2022/03/16 07:28:18;;;;;;;37.67;15.90;;;;;;;14.86;69.70;100344.69;5021704;28;20183;-69
2022/03/16 07:30:47;;;;;;;30.37;14.57;;;;;;;14.88;69.67;100340.44;5022653;28;20132;-68
2022/03/16 07:33:13;;;;;;;25.58;13.88;;;;;;;14.90;69.82;100342.91;5021533;28;20049;-67
2022/03/16 07:35:40;;;;;;;30.17;14.13;;;;;;;14.74;70.00;100322.75;5023511;28;20077;-68
2022/03/16 07:38:08;;;;;;;27.13;15.37;;;;;;;14.92;69.65;100349.91;5028410;28;20130;-67
2022/03/16 07:40:36;;;;;;;35.10;12.77;;;;;;;14.93;69.97;100345.09;5018003;28;20050;-68
2022/03/16 07:43:05;;;;;;;30.53;14.53;;;;;;;14.90;69.81;100329.69;5021090;28;20121;-68
2022/03/16 07:45:32;;;;;;;31.40;13.20;;;;;;;15.00;69.57;100350.31;5018123;28;20377;-67
2022/03/16 07:48:00;;;;;;;32.47;15.43;;;;;;;14.98;69.90;100335.75;5018354;28;20133;-67
2022/03/16 07:50:27;;;;;;;31.67;15.00;;;;;;;14.72;70.01;100298.91;5025247;28;20137;-66
2022/03/16 07:52:54;;;;;;;39.17;15.60;;;;;;;14.81;70.15;100325.97;5026803;28;20447;-67
2022/03/16 07:55:22;;;;;;;25.25;13.48;;;;;;;14.90;70.24;100356.97;5028819;28;20050;-67
2022/03/16 07:57:49;;;;;;;32.80;15.13;;;;;;;14.84;70.13;100345.03;5025308;28;20505;-67
2022/03/16 08:00:16;;;;;;;30.27;14.57;;;;;;;14.85;70.16;100355.13;5032159;28;20045;-66
2022/03/16 08:02:46;;;;;;;35.17;14.27;;;;;;;14.89;70.01;100364.59;5025707;28;20049;-67
2022/03/16 08:05:15;;;;;;;33.35;12.70;;;;;;;14.81;70.21;100350.44;5031926;28;20092;-66
2022/03/16 08:07:42;;;;;;;21.23;13.10;;;;;;;14.71;70.13;100342.25;5024809;28;20162;-67
2022/03/16 08:10:09;;;;;;;21.52;12.65;;;;;;;14.95;69.96;100385.00;5032247;28;20125;-66
2022/03/16 08:12:36;;;;;;;34.07;14.17;;;;;;;14.81;70.06;100359.72;5032995;28;20136;-67
2022/03/16 08:15:06;;;;;;;33.63;14.77;;;;;;;14.86;70.16;100373.66;5030980;28;20137;-66
2022/03/16 08:17:33;;;;;;;30.15;13.13;;;;;;;14.91;70.39;100387.63;5027961;28;20132;-65
2022/03/16 08:20:00;;;;;;;36.30;13.73;;;;;;;14.65;69.89;100347.94;5031903;28;20136;-66
2022/03/16 08:22:32;;;;;;;34.17;13.88;;;;;;;14.80;70.20;100374.06;5031649;28;20053;-66
2022/03/16 08:25:01;;;;;;;35.77;15.43;;;;;;;14.90;70.05;100397.16;5027159;28;20520;-66
2022/03/16 08:27:29;;;;;;;29.85;13.55;;;;;;;14.92;70.11;100399.69;5029720;28;20045;-67
2022/03/16 08:29:56;;;;;;;27.15;12.02;;;;;;;15.12;70.05;100437.78;5029499;28;20157;-66
2022/03/16 08:32:23;;;;;;;38.57;13.23;;;;;;;15.10;69.76;100395.91;5027623;28;20278;-67
2022/03/16 08:34:51;;;;;;;37.23;15.17;;;;;;;15.22;69.81;100408.63;5026048;28;20481;-66
2022/03/16 08:37:19;;;;;;;40.83;16.47;;;;;;;15.34;69.58;100428.59;5021208;28;20576;-66
2022/03/16 08:39:47;;;;;;;52.58;14.50;;;;;;;15.25;69.65;100400.38;5026716;28;20053;-66
2022/03/16 08:42:15;;;;;;;47.40;15.70;;;;;;;15.32;69.57;100403.59;5030753;28;20054;-66
2022/03/16 08:44:43;;;;;;;40.03;16.58;;;;;;;15.51;69.54;100442.81;5028090;28;20185;-66
2022/03/16 08:47:11;;;;;;;36.17;14.40;;;;;;;15.57;69.49;100446.38;5022146;28;20093;-66
2022/03/16 08:49:38;;;;;;;36.50;14.88;;;;;;;15.19;69.34;100365.06;5033719;28;20049;-66
2022/03/16 08:52:06;;;;;;;46.45;17.88;;;;;;;15.70;69.35;100431.44;5022405;28;20132;-66
2022/03/16 08:54:34;;;;;;;40.47;15.10;;;;;;;15.71;69.04;100432.28;5024787;28;20069;-66
2022/03/16 08:57:01;;;;;;;53.17;15.88;;;;;;;15.68;69.15;100430.09;5021222;28;20128;-67
2022/03/16 09:00:06;;;;;;;36.40;14.63;;;;;;;15.79;68.94;100435.16;5020563;28;20085;-67
2022/03/16 09:02:33;;;;;;;50.53;15.75;;;;;;;15.86;68.74;100443.16;5022636;28;20128;-67
2022/03/16 09:05:00;;;;;;;41.20;17.03;;;;;;;15.79;68.83;100432.34;5020935;28;20053;-67
2022/03/16 09:07:27;;;;;;;29.35;15.13;;;;;;;15.87;69.08;100445.66;5004157;28;20579;-66
2022/03/16 09:09:54;;;;;;;32.22;16.58;;;;;;;15.94;68.54;100438.78;5024753;28;20149;-67
2022/03/16 09:12:22;;;;;;;47.80;16.48;;;;;;;15.93;68.47;100428.63;5020991;28;20046;-66
2022/03/16 09:14:49;;;;;;;50.22;16.25;;;;;;;16.06;68.46;100444.66;5024838;28;20145;-66
2022/03/16 09:17:17;;;;;;;61.05;16.42;;;;;;;15.93;68.32;100434.25;5021652;28;20410;-68
2022/03/16 09:19:44;;;;;;;41.15;15.75;;;;;;;15.96;68.52;100465.44;5022847;28;20053;-66
2022/03/16 09:22:12;;;;;;;48.75;17.70;;;;;;;15.94;68.54;100464.13;5032544;28;20088;-66
2022/03/16 09:24:38;;;;;;;40.60;17.05;;;;;;;15.86;68.54;100455.28;5030509;28;20136;-66
2022/03/16 09:27:06;;;;;;;39.97;16.65;;;;;;;15.93;68.37;100470.88;5024452;28;20153;-66
2022/03/16 09:29:33;;;;;;;39.72;16.15;;;;;;;15.95;68.91;100472.22;5030630;28;20073;-66
2022/03/16 09:32:07;;;;;;;56.65;18.25;;;;;;;15.90;68.60;100463.06;5026673;28;20063;-66
2022/03/16 09:34:35;;;;;;;52.30;17.38;;;;;;;15.82;68.51;100442.97;5037886;28;20144;-66
2022/03/16 09:37:03;;;;;;;48.83;17.60;;;;;;;15.85;68.64;100449.94;5029050;28;20056;-67
2022/03/16 09:39:31;;;;;;;39.28;15.80;;;;;;;15.99;68.38;100463.97;5030885;28;20472;-66
2022/03/16 09:41:59;;;;;;;52.53;17.58;;;;;;;16.04;68.53;100459.06;5022385;28;20046;-66
2022/03/16 09:44:36;;;;;;;45.58;17.63;;;;;;;16.01;68.37;100447.59;5019912;28;20076;-66
2022/03/16 09:47:04;;;;;;;43.67;15.82;;;;;;;15.84;68.12;100415.34;5020357;28;20104;-67
2022/03/16 09:49:31;;;;;;;48.47;17.73;;;;;;;16.25;67.98;100492.34;5019975;28;20092;-66
2022/03/16 09:51:59;;;;;;;47.63;16.80;;;;;;;16.36;68.04;100488.13;5024212;28;20050;-66
2022/03/16 09:54:26;;;;;;;54.05;18.88;;;;;;;16.42;67.97;100477.56;5022754;28;20065;-68
2022/03/16 09:56:54;;;;;;;50.72;18.33;;;;;;;16.52;67.56;100471.66;5024711;28;20057;-66
2022/03/16 09:59:21;;;;;;;56.65;16.23;;;;;;;16.70;67.24;100481.88;5021082;28;20046;-65
2022/03/16 10:01:57;;;;;;;39.83;18.00;;;;;;;16.60;67.43;100459.59;5027630;28;20854;-66
2022/03/16 10:04:33;;;;;;;47.30;19.45;;;;;;;16.58;67.12;100437.38;5028042;28;20049;-67
2022/03/16 10:07:01;;;;;;;49.20;15.07;;;;;;;16.67;66.81;100473.22;5022814;28;20088;-66
2022/03/16 10:15:18;;;;;;;41.53;16.75;;;;;;;16.81;67.06;100500.19;5025302;28;20089;-67
2022/03/16 10:17:52;;;;;;;32.53;15.45;;;;;;;16.67;66.61;100465.59;5026174;28;20077;-67
2022/03/16 10:20:21;;;;;;;44.63;16.02;;;;;;;16.92;66.78;100503.59;5020610;28;20050;-66
2022/03/16 10:23:10;;;;;;;30.60;16.20;;;;;;;16.98;66.35;100499.44;5018533;28;20900;-66
2022/03/16 10:25:39;;;;;;;52.20;15.70;;;;;;;17.03;66.10;100484.38;5021682;28;20969;-66
2022/03/16 10:28:16;;;;;;;41.93;14.93;;;;;;;17.13;66.07;100478.44;5028495;28;20053;-67
2022/03/16 10:31:02;;;;;;;37.60;14.73;;;;;;;17.27;66.03;100475.50;5023678;28;20955;-67
2022/03/16 10:33:49;;;;;;;37.10;15.40;;;;;;;17.37;65.79;100485.66;5024853;28;20044;-66
2022/03/16 10:36:18;;;;;;;43.53;13.32;;;;;;;17.22;65.63;100468.00;5020779;28;20137;-67
2022/03/16 10:38:49;;;;;;;26.30;13.40;;;;;;;17.28;65.36;100480.81;5023768;28;20097;-66
2022/03/16 10:47:14;;;;;;;32.83;13.50;;;;;;;17.40;65.33;100501.91;5021155;28;20054;-66
2022/03/16 10:49:42;;;;;;;34.97;13.73;;;;;;;17.53;64.74;100506.59;5018947;28;20054;-66
2022/03/16 10:52:20;;;;;;;36.65;14.35;;;;;;;17.62;64.38;100496.16;5027007;28;20137;-65
2022/03/16 10:54:48;;;;;;;39.88;14.63;;;;;;;17.71;64.36;100505.50;5023460;28;20140;-66
2022/03/16 10:57:15;;;;;;;29.55;13.88;;;;;;;17.88;64.29;100507.53;5022083;28;20064;-66
2022/03/16 10:59:48;;;;;;;50.35;15.85;;;;;;;17.95;63.88;100512.72;5026021;28;20141;-66
2022/03/16 11:02:18;;;;;;;27.40;14.00;;;;;;;17.83;63.93;100479.44;5026446;28;20057;-66
2022/03/16 11:04:50;;;;;;;41.50;13.40;;;;;;;18.07;63.55;100501.56;5022947;28;20050;-66
2022/03/16 11:07:20;;;;;;;43.53;12.45;;;;;;;18.14;63.21;100509.53;5029851;28;20504;-66
2022/03/16 11:09:48;;;;;;;;;;;;;;;18.13;63.59;100508.72;5018080;28;20049;-66
2022/03/16 11:15:07;;;;;;;47.45;15.35;;;;;;;18.31;62.96;100486.09;5024717;28;20140;-66
2022/03/16 11:17:36;;;;;;;49.47;14.57;;;;;;;18.50;62.63;100480.09;5030354;28;20060;-66
2022/03/16 11:20:08;;;;;;;39.17;16.10;;;;;;;18.84;62.17;100501.81;5025745;28;20484;-66
2022/03/16 11:25:48;;;;;;;38.15;13.02;;;;;;;18.98;61.77;100479.78;5017584;28;20140;-67
2022/03/16 11:28:26;;;;;;;45.80;16.95;;;;;;;19.32;61.42;100509.94;5018916;28;20600;-67
2022/03/16 11:30:59;;;;;;;36.38;14.27;;;;;;;19.38;60.90;100496.41;5024446;28;20459;-67
2022/03/16 11:33:26;;;;;;;59.28;16.30;;;;;;;19.33;60.68;100488.94;5024908;28;20056;-67